createdAt,value
2023-05-17T00:00:09.265Z,6.3
2023-05-17T00:02:49.921Z,6.2
2023-05-17T00:05:20.719Z,6.2
2023-05-17T00:10:21.353Z,6.2
2023-05-17T00:12:51.905Z,6.3
2023-05-17T00:15:22.463Z,6.3
2023-05-17T00:18:03.095Z,6.3
2023-05-17T00:20:34.000Z,6.3
2023-05-17T00:23:04.557Z,6.3
2023-05-17T00:25:35.297Z,6.4
2023-05-17T00:28:05.846Z,6.4
2023-05-17T00:30:36.378Z,6.4
2023-05-17T00:33:16.943Z,6.4
2023-05-17T00:35:47.614Z,6.4
2023-05-17T00:38:28.167Z,6.4
2023-05-17T00:40:58.734Z,6.4
2023-05-17T00:43:29.277Z,6.4
2023-05-17T00:45:59.841Z,6.5
2023-05-17T00:51:10.415Z,6.4
2023-05-17T00:53:40.978Z,6.3
2023-05-17T00:56:11.595Z,6.4
2023-05-17T00:58:42.132Z,6.3
2023-05-17T01:01:12.732Z,6.3
2023-05-17T01:03:53.420Z,6.2
2023-05-17T01:06:24.825Z,6.1
2023-05-17T01:08:55.382Z,6.2
2023-05-17T01:11:25.969Z,6.2
2023-05-17T01:13:56.510Z,6.2
2023-05-17T01:16:27.070Z,6.2
2023-05-17T01:19:07.720Z,6.2
2023-05-17T01:21:38.705Z,6.2
2023-05-17T01:24:09.280Z,6.2
2023-05-17T01:26:39.892Z,6.1
2023-05-17T01:31:50.460Z,6.0
2023-05-17T01:34:21.112Z,5.9
2023-05-17T01:36:51.684Z,5.8
2023-05-17T01:39:22.271Z,5.7
2023-05-17T01:41:52.855Z,5.6
2023-05-17T01:44:23.394Z,5.6
2023-05-17T01:47:03.967Z,5.5
2023-05-17T01:49:34.642Z,5.4
2023-05-17T01:52:05.210Z,5.4
2023-05-17T01:54:35.803Z,5.4
2023-05-17T01:57:06.373Z,5.4
2023-05-17T01:59:37.064Z,5.2
2023-05-17T02:02:17.596Z,5.2
2023-05-17T02:04:48.241Z,5.2
2023-05-17T02:07:19.152Z,5.1
2023-05-17T02:12:19.807Z,5.1
2023-05-17T02:14:50.417Z,4.9
2023-05-17T02:17:30.995Z,4.9
2023-05-17T02:20:01.938Z,4.9
2023-05-17T02:22:32.548Z,4.8
2023-05-17T02:25:03.121Z,4.8
2023-05-17T02:27:33.695Z,4.8
2023-05-17T02:30:15.725Z,4.8
2023-05-17T02:32:47.047Z,4.7
2023-05-17T02:35:17.784Z,4.7
2023-05-17T02:37:48.705Z,4.7
2023-05-17T02:40:19.301Z,4.6
2023-05-17T02:42:49.896Z,4.5
2023-05-17T02:45:30.625Z,4.5
2023-05-17T02:48:01.338Z,4.5
2023-05-17T02:53:02.053Z,4.3
2023-05-17T02:55:32.668Z,4.3
2023-05-17T02:58:03.238Z,4.2
2023-05-17T03:00:43.789Z,4.2
2023-05-17T03:03:14.533Z,4.1
2023-05-17T03:05:45.503Z,4.1
2023-05-17T03:08:16.072Z,4.1
2023-05-17T03:10:46.671Z,4.0
2023-05-17T03:13:17.248Z,3.9
2023-05-17T03:15:57.818Z,3.9
2023-05-17T03:18:28.462Z,3.9
2023-05-17T03:20:59.574Z,3.9
2023-05-17T03:23:30.131Z,3.8
2023-05-17T03:26:00.702Z,3.7
2023-05-17T03:28:41.292Z,3.7
2023-05-17T03:33:41.903Z,3.7
2023-05-17T03:36:12.872Z,3.7
2023-05-17T03:38:43.468Z,3.7
2023-05-17T03:41:14.034Z,3.7
2023-05-17T03:44:04.582Z,3.7
2023-05-17T03:46:35.158Z,3.7
2023-05-17T03:49:05.770Z,3.7
2023-05-17T03:51:37.573Z,3.7
2023-05-17T03:53:58.168Z,3.7
2023-05-17T03:56:28.765Z,3.7
2023-05-17T03:59:09.401Z,3.7
2023-05-17T04:01:49.976Z,3.6
2023-05-17T04:04:20.607Z,3.6
2023-05-17T04:06:51.368Z,3.7
2023-05-17T04:09:21.934Z,3.7
2023-05-17T04:14:32.567Z,3.7
2023-05-17T04:17:03.130Z,3.7
2023-05-17T04:19:26.087Z,3.7
2023-05-17T04:21:56.794Z,3.7
2023-05-17T04:24:27.412Z,3.8
2023-05-17T04:27:08.053Z,3.8
2023-05-17T04:29:38.611Z,3.8
2023-05-17T04:32:19.172Z,3.9
2023-05-17T04:34:49.792Z,3.9
2023-05-17T04:37:20.312Z,3.9
2023-05-17T04:39:50.875Z,3.9
2023-05-17T04:42:31.446Z,4.0
2023-05-17T04:45:02.013Z,4.0
2023-05-17T04:47:25.802Z,4.1
2023-05-17T04:49:56.688Z,4.2
2023-05-17T04:54:57.284Z,4.4
2023-05-17T04:57:37.864Z,4.3
2023-05-17T05:00:08.452Z,4.3
2023-05-17T05:02:39.036Z,4.3
2023-05-17T05:05:09.765Z,4.3
2023-05-17T05:07:40.709Z,4.3
2023-05-17T05:10:11.293Z,4.3
2023-05-17T05:12:51.854Z,4.5
2023-05-17T05:15:22.456Z,4.6
2023-05-17T05:18:03.188Z,4.6
2023-05-17T05:20:25.850Z,4.8
2023-05-17T05:22:57.644Z,5.1
2023-05-17T05:25:28.377Z,5.4
2023-05-17T05:28:09.126Z,5.6
2023-05-17T05:30:39.934Z,5.6
2023-05-17T05:35:40.573Z,6.1
2023-05-17T05:38:11.233Z,6.2
2023-05-17T05:40:51.833Z,6.4
2023-05-17T05:43:22.412Z,6.4
2023-05-17T05:45:52.996Z,6.4
2023-05-17T05:48:23.597Z,6.5
2023-05-17T05:50:54.356Z,6.8
2023-05-17T05:53:24.910Z,6.7
2023-05-17T05:56:05.478Z,6.7
2023-05-17T05:58:36.049Z,6.8
2023-05-17T06:01:06.679Z,6.6
2023-05-17T06:03:37.275Z,6.8
2023-05-17T06:06:07.902Z,6.9
2023-05-17T06:08:38.824Z,7.0
2023-05-17T06:11:20.133Z,6.9
2023-05-17T06:16:30.755Z,6.9
2023-05-17T06:19:01.441Z,7.0
2023-05-17T06:21:32.149Z,7.0
2023-05-17T06:24:04.857Z,7.0
2023-05-17T06:26:35.620Z,7.1
2023-05-17T06:29:06.182Z,7.1
2023-05-17T06:31:36.742Z,7.1
2023-05-17T06:34:07.498Z,7.0
2023-05-17T06:36:38.543Z,7.0
2023-05-17T06:39:19.400Z,7.2
2023-05-17T06:41:50.315Z,7.3
2023-05-17T06:44:20.881Z,7.1
2023-05-17T06:46:51.431Z,7.0
2023-05-17T06:49:22.003Z,6.9
2023-05-17T06:51:52.545Z,6.8
2023-05-17T06:57:03.111Z,7.1
2023-05-17T06:59:43.721Z,7.3
2023-05-17T07:02:14.372Z,7.6
2023-05-17T07:04:45.317Z,7.6
2023-05-17T07:07:07.094Z,7.8
2023-05-17T07:09:47.653Z,7.9
2023-05-17T07:12:18.200Z,7.8
2023-05-17T07:14:48.901Z,8.1
2023-05-17T07:17:19.473Z,8.8
2023-05-17T07:20:00.360Z,8.5
2023-05-17T07:22:21.135Z,8.8
2023-05-17T07:25:01.727Z,8.9
2023-05-17T07:27:42.275Z,8.8
2023-05-17T07:30:13.076Z,8.9
2023-05-17T07:32:43.641Z,8.8
2023-05-17T07:37:44.384Z,9.0
2023-05-17T07:40:25.004Z,9.0
2023-05-17T07:42:55.641Z,9.2
2023-05-17T07:45:26.248Z,9.3
2023-05-17T07:47:57.073Z,9.2
2023-05-17T07:50:28.038Z,9.3
2023-05-17T07:53:08.603Z,9.4
2023-05-17T07:55:39.177Z,9.5
2023-05-17T07:58:09.739Z,9.7
2023-05-17T08:00:40.299Z,9.8
2023-05-17T08:03:10.907Z,10.0
2023-05-17T08:05:41.550Z,10.0
2023-05-17T08:08:22.233Z,10.0
2023-05-17T08:10:52.801Z,10.3
2023-05-17T08:13:23.360Z,10.0
2023-05-17T08:18:24.035Z,10.2
2023-05-17T08:20:55.094Z,10.7
2023-05-17T08:23:35.690Z,10.5
2023-05-17T08:26:06.261Z,10.6
2023-05-17T08:28:36.940Z,10.6
2023-05-17T08:31:07.524Z,10.8
2023-05-17T08:33:38.210Z,10.8
2023-05-17T08:36:09.356Z,10.9
2023-05-17T08:38:49.922Z,11.0
2023-05-17T08:41:20.473Z,11.3
2023-05-17T08:43:51.126Z,11.2
2023-05-17T08:46:21.825Z,11.6
2023-05-17T08:48:52.473Z,11.2
2023-05-17T08:51:33.513Z,11.2
2023-05-17T08:54:04.128Z,11.0
2023-05-17T08:59:04.714Z,12.0
2023-05-17T09:01:35.262Z,11.8
2023-05-17T09:04:05.830Z,11.9
2023-05-17T09:06:46.472Z,11.5
2023-05-17T09:09:17.033Z,11.5
2023-05-17T09:11:47.642Z,11.1
2023-05-17T09:14:18.200Z,10.5
2023-05-17T09:16:48.767Z,10.3
2023-05-17T09:19:19.479Z,10.2
2023-05-17T09:22:00.265Z,10.0
2023-05-17T09:24:30.860Z,10.0
2023-05-17T09:27:01.468Z,10.0
2023-05-17T09:29:32.041Z,10.5
2023-05-17T09:32:02.606Z,10.9
2023-05-17T09:34:33.281Z,11.4
2023-05-17T09:39:43.868Z,11.2
2023-05-17T09:44:44.474Z,11.2
2023-05-17T09:47:15.077Z,11.4
2023-05-17T09:49:55.851Z,12.0
2023-05-17T09:52:26.426Z,11.9
2023-05-17T09:55:07.081Z,11.5
2023-05-17T09:57:28.280Z,11.9
2023-05-17T09:59:58.836Z,12.0
2023-05-17T10:02:29.536Z,12.4
2023-05-17T10:05:10.525Z,12.7
2023-05-17T10:07:41.618Z,12.5
2023-05-17T10:10:12.222Z,12.4
2023-05-17T10:12:42.805Z,12.2
2023-05-17T10:15:13.447Z,11.7
2023-05-17T10:20:34.056Z,11.9
2023-05-17T10:23:04.616Z,12.1
2023-05-17T10:25:35.245Z,11.8
2023-05-17T10:28:05.791Z,11.4
2023-05-17T10:30:36.361Z,11.3
2023-05-17T10:35:46.958Z,12.0
2023-05-17T10:38:17.676Z,12.4
2023-05-17T10:40:49.112Z,12.7
2023-05-17T10:43:21.451Z,12.8
2023-05-17T10:45:52.029Z,12.6
2023-05-17T10:48:32.580Z,12.4
2023-05-17T10:51:03.286Z,12.5
2023-05-17T10:56:03.892Z,12.8
2023-05-17T11:01:04.462Z,11.8
2023-05-17T11:03:45.009Z,12.2
2023-05-17T11:06:23.241Z,12.0
2023-05-17T11:08:44.806Z,12.0
2023-05-17T11:11:15.364Z,12.2
2023-05-17T11:13:45.968Z,11.9
2023-05-17T11:16:17.961Z,11.6
2023-05-17T11:18:58.742Z,11.7
2023-05-17T11:21:29.663Z,12.3
2023-05-17T11:24:00.283Z,12.6
2023-05-17T11:26:32.652Z,12.3
2023-05-17T11:29:03.278Z,12.0
2023-05-17T11:31:33.863Z,11.6
2023-05-17T11:34:14.447Z,11.9
2023-05-17T11:36:45.242Z,12.4
2023-05-17T11:41:45.884Z,12.6
2023-05-17T11:44:16.455Z,12.2
2023-05-17T11:46:57.027Z,12.0
2023-05-17T11:49:35.433Z,12.1
2023-05-17T11:51:56.998Z,12.4
2023-05-17T11:54:27.644Z,12.8
2023-05-17T11:56:58.207Z,13.2
2023-05-17T11:59:28.764Z,12.9
2023-05-17T12:02:09.318Z,12.4
2023-05-17T12:04:39.976Z,12.6
2023-05-17T12:07:10.797Z,12.8
2023-05-17T12:09:41.425Z,13.0
2023-05-17T12:12:12.060Z,13.3
2023-05-17T12:14:42.634Z,12.8
2023-05-17T12:17:23.206Z,12.7
2023-05-17T12:22:24.001Z,12.0
2023-05-17T12:24:54.610Z,12.3
2023-05-17T12:27:25.196Z,12.4
2023-05-17T12:29:55.766Z,12.5
2023-05-17T12:32:36.385Z,12.8
2023-05-17T12:35:07.158Z,12.9
2023-05-17T12:37:37.725Z,12.7
2023-05-17T12:40:08.331Z,12.3
2023-05-17T12:45:19.120Z,12.5
2023-05-17T12:47:49.700Z,12.2
2023-05-17T12:50:20.419Z,12.3
2023-05-17T12:52:51.243Z,11.8
2023-05-17T12:55:21.877Z,11.7
2023-05-17T12:57:52.432Z,12.0
2023-05-17T13:03:13.065Z,12.6
2023-05-17T13:05:44.013Z,12.6
2023-05-17T13:08:14.578Z,12.3
2023-05-17T13:10:45.209Z,12.2
2023-05-17T13:13:15.786Z,12.1
2023-05-17T13:15:56.356Z,11.8
2023-05-17T13:18:27.066Z,12.1
2023-05-17T13:20:58.076Z,12.2
2023-05-17T13:23:28.630Z,12.6
2023-05-17T13:25:59.239Z,12.4
2023-05-17T13:28:29.807Z,12.0
2023-05-17T13:31:10.382Z,12.1
2023-05-17T13:33:41.213Z,11.7
2023-05-17T13:36:12.166Z,11.7
2023-05-17T13:38:42.742Z,12.0
2023-05-17T13:43:53.340Z,11.6
2023-05-17T13:46:23.931Z,11.6
2023-05-17T13:48:54.595Z,11.7
2023-05-17T13:51:25.330Z,11.8
2023-05-17T13:53:55.915Z,11.7
2023-05-17T13:56:26.473Z,11.7
2023-05-17T13:59:07.037Z,11.6
2023-05-17T14:01:37.618Z,11.8
2023-05-17T14:04:08.278Z,12.0
2023-05-17T14:06:38.917Z,11.6
2023-05-17T14:09:11.066Z,11.7
2023-05-17T14:11:41.660Z,11.4
2023-05-17T14:14:22.234Z,11.5
2023-05-17T14:16:52.798Z,11.2
2023-05-17T14:19:23.504Z,11.2
2023-05-17T14:24:24.635Z,11.2
2023-05-17T14:26:56.653Z,11.3
2023-05-17T14:29:37.214Z,11.7
2023-05-17T14:32:07.768Z,11.8
2023-05-17T14:34:38.408Z,12.4
2023-05-17T14:37:09.354Z,12.4
2023-05-17T14:39:39.926Z,12.1
2023-05-17T14:42:06.272Z,11.8
2023-05-17T14:44:46.858Z,11.6
2023-05-17T14:47:17.421Z,11.5
2023-05-17T14:49:48.060Z,11.4
2023-05-17T14:52:18.636Z,11.2
2023-05-17T14:54:49.228Z,11.1
2023-05-17T14:57:19.863Z,11.2
2023-05-17T15:00:00.489Z,10.9
2023-05-17T15:05:11.147Z,10.8
2023-05-17T15:07:32.100Z,10.7
2023-05-17T15:10:12.657Z,10.6
2023-05-17T15:12:53.306Z,10.6
2023-05-17T15:15:23.867Z,10.4
2023-05-17T15:17:54.525Z,10.5
2023-05-17T15:20:25.238Z,10.5
2023-05-17T15:22:55.935Z,10.4
2023-05-17T15:25:26.511Z,10.6
2023-05-17T15:28:07.087Z,10.4
2023-05-17T15:30:37.842Z,10.7
2023-05-17T15:33:08.439Z,10.5
2023-05-17T15:35:39.269Z,10.4
2023-05-17T15:38:09.827Z,10.5
2023-05-17T15:40:40.401Z,10.5
2023-05-17T15:45:50.967Z,10.4
2023-05-17T15:48:21.575Z,10.4
2023-05-17T15:50:52.319Z,10.3
2023-05-17T15:53:22.839Z,10.4
2023-05-17T15:55:53.477Z,10.4
2023-05-17T15:58:34.049Z,10.6
2023-05-17T16:01:04.659Z,10.6
2023-05-17T16:03:35.297Z,10.7
2023-05-17T16:06:06.016Z,10.8
2023-05-17T16:08:36.722Z,11.0
2023-05-17T16:11:17.325Z,11.3
2023-05-17T16:13:47.864Z,11.1
2023-05-17T16:16:18.448Z,11.1
2023-05-17T16:18:49.105Z,11.0
2023-05-17T16:21:20.072Z,10.8
2023-05-17T16:26:30.660Z,10.7
2023-05-17T16:29:01.247Z,10.6
2023-05-17T16:31:31.912Z,10.4
2023-05-17T16:34:02.847Z,10.5
2023-05-17T16:36:33.627Z,10.6
2023-05-17T16:41:44.211Z,10.7
2023-05-17T16:44:14.800Z,10.8
2023-05-17T16:46:45.455Z,10.7
2023-05-17T16:49:16.148Z,10.5
2023-05-17T16:51:46.707Z,10.6
2023-05-17T16:54:17.258Z,10.4
2023-05-17T16:56:57.833Z,10.4
2023-05-17T16:59:28.867Z,10.5
2023-05-17T17:01:59.475Z,10.5
2023-05-17T17:07:00.273Z,10.5
2023-05-17T17:09:30.865Z,10.5
2023-05-17T17:12:20.434Z,10.5
2023-05-17T17:14:44.095Z,10.5
2023-05-17T17:17:17.689Z,10.5
2023-05-17T17:19:48.479Z,10.6
2023-05-17T17:22:19.044Z,10.6
2023-05-17T17:24:59.621Z,10.5
2023-05-17T17:27:30.166Z,10.6
2023-05-17T17:30:03.307Z,10.5
2023-05-17T17:32:33.930Z,10.4
2023-05-17T17:35:05.104Z,10.5
2023-05-17T17:37:35.639Z,10.4
2023-05-17T17:40:16.269Z,10.4
2023-05-17T17:42:46.822Z,10.4
2023-05-17T17:47:47.436Z,10.3
2023-05-17T17:50:18.146Z,10.3
2023-05-17T17:52:48.996Z,10.3
2023-05-17T17:55:29.553Z,10.2
2023-05-17T17:58:00.163Z,10.2
2023-05-17T18:00:31.017Z,10.2
2023-05-17T18:03:01.948Z,10.2
2023-05-17T18:05:32.613Z,10.2
2023-05-17T18:08:03.240Z,10.2
2023-05-17T18:10:43.994Z,10.1
2023-05-17T18:13:14.560Z,10.0
2023-05-17T18:15:45.129Z,10.0
2023-05-17T18:18:15.743Z,10.0
2023-05-17T18:20:46.391Z,10.0
2023-05-17T18:23:16.963Z,10.0
2023-05-17T18:28:41.063Z,10.0
2023-05-17T18:31:02.500Z,9.8
2023-05-17T18:33:33.028Z,9.6
2023-05-17T18:35:57.195Z,9.5
2023-05-17T18:38:37.743Z,9.4
2023-05-17T18:41:08.309Z,9.4
2023-05-17T18:43:38.868Z,9.4
2023-05-17T18:46:09.439Z,9.3
2023-05-17T18:48:40.165Z,9.2
2023-05-17T18:51:10.728Z,9.1
2023-05-17T18:53:51.320Z,8.9
2023-05-17T18:56:21.903Z,8.8
2023-05-17T18:59:02.476Z,8.6
2023-05-17T19:01:33.053Z,8.4
2023-05-17T19:04:03.632Z,8.3
2023-05-17T19:09:14.542Z,8.0
2023-05-17T19:11:45.134Z,7.8
2023-05-17T19:14:15.683Z,7.8
2023-05-17T19:16:46.390Z,7.6
2023-05-17T19:19:17.162Z,7.6
2023-05-17T19:21:47.856Z,7.5
2023-05-17T19:24:28.451Z,7.4
2023-05-17T19:26:59.359Z,7.4
2023-05-17T19:29:30.142Z,7.3
2023-05-17T19:32:00.697Z,7.2
2023-05-17T19:34:31.302Z,7.2
2023-05-17T19:37:02.391Z,7.2
2023-05-17T19:39:42.976Z,7.2
2023-05-17T19:42:13.524Z,7.1
2023-05-17T19:44:44.068Z,7.0
2023-05-17T19:49:44.678Z,6.9
2023-05-17T19:52:25.227Z,6.8
2023-05-17T19:54:55.799Z,6.8
2023-05-17T19:57:26.425Z,6.8
2023-05-17T19:59:57.040Z,6.7
2023-05-17T20:02:27.696Z,6.7
2023-05-17T20:04:58.535Z,6.6
2023-05-17T20:07:39.073Z,6.6
2023-05-17T20:10:09.702Z,6.5
2023-05-17T20:12:40.598Z,6.4
2023-05-17T20:15:11.168Z,6.0
2023-05-17T20:17:41.713Z,5.7
2023-05-17T20:20:12.498Z,5.7
2023-05-17T20:22:53.106Z,5.6
2023-05-17T20:25:23.714Z,5.5
2023-05-17T20:30:24.279Z,5.5
2023-05-17T20:32:54.943Z,5.4
2023-05-17T20:35:25.674Z,5.2
2023-05-17T20:38:06.223Z,5.2
2023-05-17T20:40:36.843Z,4.9
2023-05-17T20:43:07.430Z,4.9
2023-05-17T20:45:38.009Z,4.9
2023-05-17T20:48:08.698Z,4.9
2023-05-17T20:50:49.352Z,4.8
2023-05-17T20:53:19.932Z,4.7
2023-05-17T20:55:50.531Z,4.7
2023-05-17T20:58:21.076Z,4.6
2023-05-17T21:00:51.684Z,4.4
2023-05-17T21:03:22.396Z,4.3
2023-05-17T21:06:03.409Z,4.3
2023-05-17T21:11:04.034Z,4.0
2023-05-17T21:13:34.670Z,3.9
2023-05-17T21:16:05.280Z,3.9
2023-05-17T21:18:36.077Z,3.9
2023-05-17T21:21:16.862Z,3.9
2023-05-17T21:23:47.441Z,3.9
2023-05-17T21:26:18.043Z,3.9
2023-05-17T21:28:51.246Z,3.9
2023-05-17T21:31:21.862Z,3.9
2023-05-17T21:33:52.648Z,3.8
2023-05-17T21:36:33.224Z,3.8
2023-05-17T21:39:03.842Z,3.8
2023-05-17T21:41:34.491Z,3.9
2023-05-17T21:44:05.059Z,3.9
2023-05-17T21:46:35.709Z,4.0
2023-05-17T21:51:49.173Z,4.1
2023-05-17T21:54:19.757Z,4.1
2023-05-17T21:56:50.372Z,4.1
2023-05-17T21:59:20.903Z,4.1
2023-05-17T22:01:51.531Z,4.1
2023-05-17T22:04:32.320Z,4.0
2023-05-17T22:07:02.908Z,4.0
2023-05-17T22:09:33.518Z,3.9
2023-05-17T22:12:04.152Z,3.9
2023-05-17T22:14:34.797Z,3.9
2023-05-17T22:17:05.362Z,3.8
2023-05-17T22:19:49.579Z,3.9
2023-05-17T22:22:20.139Z,3.8
2023-05-17T22:24:50.712Z,3.9
2023-05-17T22:27:21.258Z,3.9
2023-05-17T22:32:21.902Z,4.0
2023-05-17T22:35:02.548Z,4.0
2023-05-17T22:37:33.127Z,4.1
2023-05-17T22:40:03.997Z,4.1
2023-05-17T22:42:34.590Z,4.2
2023-05-17T22:45:05.251Z,4.1
2023-05-17T22:47:45.848Z,4.2
2023-05-17T22:50:16.582Z,4.2
2023-05-17T22:52:47.139Z,4.2
2023-05-17T22:55:17.807Z,4.2
2023-05-17T22:57:48.481Z,4.2
2023-05-17T23:00:19.110Z,4.3
2023-05-17T23:02:59.715Z,4.3
2023-05-17T23:05:30.678Z,4.3
2023-05-17T23:08:01.495Z,4.3
2023-05-17T23:13:02.104Z,4.2
2023-05-17T23:15:32.677Z,4.2
2023-05-17T23:18:13.324Z,4.2
2023-05-17T23:20:43.978Z,4.1
2023-05-17T23:23:14.625Z,3.9
2023-05-17T23:25:45.201Z,3.9
2023-05-17T23:28:15.779Z,3.9
2023-05-17T23:30:46.361Z,3.9
2023-05-17T23:33:26.935Z,3.9
2023-05-17T23:35:57.504Z,3.9
2023-05-17T23:38:28.073Z,4.0
2023-05-17T23:40:58.756Z,4.1
2023-05-17T23:43:29.334Z,4.1
2023-05-17T23:45:59.904Z,4.2
2023-05-17T23:48:50.645Z,4.2
2023-05-17T23:53:51.282Z,4.2
2023-05-17T23:56:21.880Z,4.2
2023-05-17T23:58:52.481Z,4.1
